createdAt,value
2022-11-29T00:01:40.725Z,91.30
2022-11-29T00:04:09.351Z,90.91
2022-11-29T00:06:37.931Z,90.56
2022-11-29T00:09:09.402Z,90.51
2022-11-29T00:11:57.015Z,90.56
2022-11-29T00:14:27.240Z,90.48
2022-11-29T00:17:02.413Z,90.57
2022-11-29T00:19:33.684Z,90.67
2022-11-29T00:22:02.889Z,90.65
2022-11-29T00:24:34.570Z,90.86
2022-11-29T00:27:02.823Z,90.86
2022-11-29T00:29:30.924Z,90.81
2022-11-29T00:31:59.545Z,90.68
2022-11-29T00:34:28.264Z,90.54
2022-11-29T00:36:56.010Z,90.26
2022-11-29T00:39:24.231Z,90.31
2022-11-29T00:41:51.912Z,90.31
2022-11-29T00:44:20.585Z,90.34
2022-11-29T00:46:49.043Z,90.22
2022-11-29T00:49:17.379Z,90.23
2022-11-29T00:51:46.368Z,90.21
2022-11-29T00:54:14.247Z,90.29
2022-11-29T00:56:42.122Z,90.33
2022-11-29T00:59:10.020Z,90.29
2022-11-29T01:01:37.750Z,90.28
2022-11-29T01:04:05.513Z,90.27
2022-11-29T01:06:33.241Z,90.28
2022-11-29T01:09:00.946Z,90.31
2022-11-29T01:11:29.147Z,90.22
2022-11-29T01:14:01.226Z,90.27
2022-11-29T01:16:32.051Z,90.42
2022-11-29T01:19:00.540Z,90.36
2022-11-29T01:21:28.633Z,90.38
2022-11-29T01:23:56.854Z,90.41
2022-11-29T01:26:27.825Z,90.50
2022-11-29T01:28:57.179Z,90.55
2022-11-29T01:31:30.387Z,90.58
2022-11-29T01:34:02.620Z,90.66
2022-11-29T01:36:30.608Z,90.63
2022-11-29T01:39:04.098Z,90.64
2022-11-29T01:41:34.801Z,90.66
2022-11-29T01:44:11.566Z,90.70
2022-11-29T01:46:43.496Z,90.76
2022-11-29T01:49:23.071Z,90.75
2022-11-29T01:52:00.861Z,90.79
2022-11-29T01:54:32.184Z,90.82
2022-11-29T01:57:03.904Z,90.85
2022-11-29T01:59:31.806Z,90.85
2022-11-29T02:02:08.601Z,90.86
2022-11-29T02:04:38.387Z,90.91
2022-11-29T02:07:06.216Z,90.92
2022-11-29T02:09:33.992Z,90.89
2022-11-29T02:12:14.944Z,90.79
2022-11-29T02:14:55.463Z,90.80
2022-11-29T02:17:53.657Z,90.70
2022-11-29T02:20:36.295Z,90.89
2022-11-29T02:23:36.019Z,91.07
2022-11-29T02:26:33.923Z,91.16
2022-11-29T02:29:31.890Z,91.25
2022-11-29T02:32:39.601Z,91.16
2022-11-29T02:35:38.550Z,91.22
2022-11-29T02:38:27.912Z,91.21
2022-11-29T02:41:22.817Z,91.01
2022-11-29T02:44:34.091Z,90.95
2022-11-29T02:47:19.552Z,90.81
2022-11-29T02:50:18.022Z,90.89
2022-11-29T02:53:06.667Z,90.83
2022-11-29T02:56:01.781Z,90.92
2022-11-29T02:58:52.617Z,90.74
2022-11-29T03:01:33.670Z,90.70
2022-11-29T03:04:50.994Z,90.53
2022-11-29T03:07:44.114Z,90.62
2022-11-29T03:10:55.616Z,90.66
2022-11-29T03:13:51.681Z,90.77
2022-11-29T03:16:56.876Z,90.87
2022-11-29T03:19:39.022Z,90.93
2022-11-29T03:22:45.811Z,90.90
2022-11-29T03:25:27.502Z,91.02
2022-11-29T03:28:22.534Z,91.08
2022-11-29T03:31:19.975Z,91.13
2022-11-29T03:34:18.761Z,91.18
2022-11-29T03:37:49.441Z,91.21
2022-11-29T03:40:24.413Z,91.20
2022-11-29T03:43:14.083Z,91.26
2022-11-29T03:46:00.932Z,91.15
2022-11-29T03:48:37.768Z,91.16
2022-11-29T03:51:41.021Z,91.13
2022-11-29T03:54:19.632Z,91.12
2022-11-29T03:56:47.894Z,91.19
2022-11-29T03:59:37.907Z,91.22
2022-11-29T04:02:44.665Z,91.20
2022-11-29T04:05:42.591Z,91.16
2022-11-29T04:08:50.860Z,91.11
2022-11-29T04:11:54.750Z,91.08
2022-11-29T04:15:12.773Z,91.07
2022-11-29T04:18:18.581Z,90.92
2022-11-29T04:21:10.512Z,91.03
2022-11-29T04:24:09.355Z,91.09
2022-11-29T04:27:04.923Z,90.90
2022-11-29T04:29:50.659Z,90.78
2022-11-29T04:33:10.323Z,90.88
2022-11-29T04:36:17.819Z,90.79
2022-11-29T04:39:06.499Z,90.83
2022-11-29T04:41:46.103Z,90.76
2022-11-29T04:45:19.003Z,90.85
2022-11-29T04:48:22.344Z,90.42
2022-11-29T04:51:22.466Z,90.50
2022-11-29T04:54:13.813Z,90.15
2022-11-29T04:56:50.827Z,90.55
2022-11-29T04:59:28.080Z,90.50
2022-11-29T05:02:09.863Z,90.57
2022-11-29T05:05:00.745Z,90.52
2022-11-29T05:07:44.486Z,90.54
2022-11-29T05:11:02.171Z,90.48
2022-11-29T05:13:58.910Z,90.58
2022-11-29T05:17:08.001Z,90.68
2022-11-29T05:20:18.993Z,90.79
2022-11-29T05:23:01.756Z,90.84
2022-11-29T05:25:40.206Z,90.86
2022-11-29T05:28:16.973Z,90.94
2022-11-29T05:30:58.422Z,90.78
2022-11-29T05:33:56.505Z,90.67
2022-11-29T05:37:17.887Z,90.69
2022-11-29T05:40:14.481Z,90.71
2022-11-29T05:43:29.794Z,90.80
2022-11-29T05:46:18.581Z,90.71
2022-11-29T05:49:21.048Z,90.77
2022-11-29T05:52:24.406Z,90.80
2022-11-29T05:55:14.170Z,90.72
2022-11-29T05:58:19.088Z,90.68
2022-11-29T06:01:18.814Z,90.49
2022-11-29T06:03:58.376Z,90.39
2022-11-29T06:06:55.481Z,90.55
2022-11-29T06:09:49.964Z,90.71
2022-11-29T06:12:24.844Z,90.92
2022-11-29T06:15:17.253Z,90.72
2022-11-29T06:17:55.161Z,90.55
2022-11-29T06:20:46.032Z,90.45
2022-11-29T06:23:29.202Z,90.37
2022-11-29T06:26:25.208Z,90.29
2022-11-29T06:29:51.121Z,90.37
2022-11-29T06:32:44.372Z,90.56
2022-11-29T06:35:45.779Z,90.76
2022-11-29T06:38:22.890Z,90.75
2022-11-29T06:40:54.012Z,90.71
2022-11-29T06:43:25.921Z,90.75
2022-11-29T06:46:17.544Z,90.75
2022-11-29T06:49:01.943Z,90.79
2022-11-29T06:51:42.925Z,90.60
2022-11-29T06:54:33.852Z,90.53
2022-11-29T06:57:29.514Z,90.62
2022-11-29T07:00:26.846Z,90.63
2022-11-29T07:03:31.048Z,90.55
2022-11-29T07:05:59.219Z,90.44
2022-11-29T07:08:27.401Z,90.62
2022-11-29T07:10:56.051Z,90.81
2022-11-29T07:13:24.150Z,90.57
2022-11-29T07:16:33.852Z,90.50
2022-11-29T07:19:36.691Z,90.53
2022-11-29T07:22:32.838Z,90.65
2022-11-29T07:25:17.593Z,90.49
2022-11-29T07:28:27.861Z,90.65
2022-11-29T07:31:32.324Z,90.46
2022-11-29T07:34:40.283Z,90.51
2022-11-29T07:37:37.699Z,90.65
2022-11-29T07:40:27.112Z,90.72
2022-11-29T07:43:28.912Z,90.54
2022-11-29T07:45:57.391Z,90.40
2022-11-29T07:48:25.105Z,90.54
2022-11-29T07:50:55.976Z,90.53
2022-11-29T07:53:24.380Z,90.28
2022-11-29T07:55:52.586Z,90.22
2022-11-29T07:58:20.658Z,90.24
2022-11-29T08:00:48.430Z,90.34
2022-11-29T08:03:16.240Z,90.39
2022-11-29T08:05:47.482Z,90.45
2022-11-29T08:08:15.469Z,90.45
2022-11-29T08:10:44.496Z,90.41
2022-11-29T08:13:12.358Z,90.45
2022-11-29T08:15:47.699Z,90.33
2022-11-29T08:18:16.373Z,90.13
2022-11-29T08:20:46.165Z,90.32
2022-11-29T08:23:14.700Z,90.32
2022-11-29T08:25:42.440Z,90.26
2022-11-29T08:28:10.162Z,90.35
2022-11-29T08:30:38.242Z,90.44
2022-11-29T08:33:07.061Z,90.44
2022-11-29T08:35:35.843Z,90.44
2022-11-29T08:38:04.852Z,90.42
2022-11-29T08:40:32.705Z,90.43
2022-11-29T08:43:00.394Z,90.26
2022-11-29T08:45:28.246Z,90.19
2022-11-29T08:47:56.028Z,90.13
2022-11-29T08:50:24.547Z,90.29
2022-11-29T08:53:11.119Z,90.32
2022-11-29T08:55:42.894Z,90.24
2022-11-29T08:58:14.923Z,90.20
2022-11-29T09:00:46.896Z,89.49
2022-11-29T09:03:33.734Z,89.35
2022-11-29T09:06:11.995Z,89.94
2022-11-29T09:08:45.231Z,89.77
2022-11-29T09:11:22.106Z,89.91
2022-11-29T09:13:53.931Z,89.90
2022-11-29T09:16:25.462Z,89.91
2022-11-29T09:18:55.857Z,89.83
2022-11-29T09:21:26.901Z,89.85
2022-11-29T09:23:59.274Z,89.93
2022-11-29T09:26:30.935Z,90.05
2022-11-29T09:29:01.233Z,90.11
2022-11-29T09:31:31.282Z,89.95
2022-11-29T09:33:59.223Z,89.91
2022-11-29T09:36:29.463Z,89.90
2022-11-29T09:38:58.631Z,89.94
2022-11-29T09:42:01.247Z,89.80
2022-11-29T09:45:07.777Z,89.70
2022-11-29T09:48:07.323Z,89.67
2022-11-29T09:50:47.584Z,89.88
2022-11-29T09:53:43.930Z,89.72
2022-11-29T09:56:34.327Z,89.77
2022-11-29T09:59:10.861Z,89.66
2022-11-29T10:01:46.597Z,89.48
2022-11-29T10:04:21.270Z,89.48
2022-11-29T10:07:08.634Z,89.64
2022-11-29T10:09:46.048Z,89.57
2022-11-29T10:12:35.054Z,89.29
2022-11-29T10:15:29.200Z,89.54
2022-11-29T10:18:24.334Z,89.62
2022-11-29T10:20:58.521Z,89.61
2022-11-29T10:23:41.690Z,89.52
2022-11-29T10:26:12.290Z,89.59
2022-11-29T10:28:45.097Z,89.61
2022-11-29T10:31:49.498Z,89.46
2022-11-29T10:34:21.871Z,89.39
2022-11-29T10:36:59.881Z,89.31
2022-11-29T10:40:04.431Z,89.49
2022-11-29T10:42:51.957Z,89.34
2022-11-29T10:45:35.476Z,89.27
2022-11-29T10:48:10.596Z,89.19
2022-11-29T10:50:44.015Z,88.39
2022-11-29T10:53:24.173Z,88.99
2022-11-29T10:56:08.741Z,89.07
2022-11-29T10:58:52.498Z,88.76
2022-11-29T11:01:20.657Z,89.08
2022-11-29T11:03:54.657Z,89.17
2022-11-29T11:06:25.692Z,89.09
2022-11-29T11:09:14.420Z,89.07
2022-11-29T11:11:52.665Z,88.82
2022-11-29T11:14:32.878Z,89.03
2022-11-29T11:17:27.182Z,89.12
2022-11-29T11:20:25.807Z,89.10
2022-11-29T11:23:03.725Z,88.74
2022-11-29T11:25:40.796Z,88.80
2022-11-29T11:28:22.741Z,89.32
2022-11-29T11:30:55.759Z,89.24
2022-11-29T11:33:31.436Z,89.23
2022-11-29T11:36:34.801Z,88.20
2022-11-29T11:39:13.138Z,88.23
2022-11-29T11:42:04.328Z,88.41
2022-11-29T11:44:50.010Z,88.72
2022-11-29T11:47:27.273Z,88.26
2022-11-29T11:50:02.179Z,88.23
2022-11-29T11:52:41.340Z,88.25
2022-11-29T11:55:41.017Z,88.40
2022-11-29T11:58:16.223Z,88.18
2022-11-29T12:01:23.094Z,87.93
2022-11-29T12:03:58.959Z,88.35
2022-11-29T12:07:02.887Z,88.28
2022-11-29T12:09:46.263Z,88.16
2022-11-29T12:12:21.097Z,87.95
2022-11-29T12:15:03.266Z,88.11
2022-11-29T12:17:48.955Z,88.12
2022-11-29T12:20:28.586Z,87.77
2022-11-29T12:23:02.925Z,88.26
2022-11-29T12:25:54.914Z,88.13
2022-11-29T12:28:32.120Z,88.20
2022-11-29T12:31:42.739Z,88.28
2022-11-29T12:34:43.180Z,88.34
2022-11-29T12:37:28.111Z,87.93
2022-11-29T12:40:11.083Z,88.20
2022-11-29T12:43:03.313Z,88.27
2022-11-29T12:46:08.039Z,88.11
2022-11-29T12:48:57.106Z,87.82
2022-11-29T12:51:46.723Z,87.69
2022-11-29T12:54:38.399Z,87.57
2022-11-29T12:57:23.734Z,87.84
2022-11-29T13:00:14.663Z,88.00
2022-11-29T13:03:26.148Z,88.22
2022-11-29T13:06:23.323Z,88.13
2022-11-29T13:09:24.324Z,87.34
2022-11-29T13:12:10.381Z,87.50
2022-11-29T13:15:01.281Z,87.71
2022-11-29T13:18:14.420Z,87.92
2022-11-29T13:20:52.565Z,87.83
2022-11-29T13:24:07.234Z,87.89
2022-11-29T13:26:30.902Z,87.69
2022-11-29T13:29:01.803Z,87.77
2022-11-29T13:31:31.109Z,87.73
2022-11-29T13:34:09.542Z,87.54
2022-11-29T13:36:52.274Z,87.40
2022-11-29T13:39:36.708Z,87.71
2022-11-29T13:42:17.011Z,88.11
2022-11-29T13:45:01.587Z,88.12
2022-11-29T13:47:29.522Z,88.14
2022-11-29T13:50:36.218Z,87.97
2022-11-29T13:53:14.945Z,88.17
2022-11-29T13:56:02.317Z,88.17
2022-11-29T13:58:38.590Z,88.16
2022-11-29T14:01:14.589Z,87.98
2022-11-29T14:04:07.409Z,88.03
2022-11-29T14:06:38.069Z,88.07
2022-11-29T14:09:25.926Z,87.89
2022-11-29T14:12:26.972Z,87.77
2022-11-29T14:15:04.016Z,88.24
2022-11-29T14:18:09.832Z,87.94
2022-11-29T14:20:54.293Z,87.71
2022-11-29T14:23:40.965Z,87.84
2022-11-29T14:26:08.565Z,88.14
2022-11-29T14:28:39.131Z,88.16
2022-11-29T14:31:08.969Z,87.81
2022-11-29T14:34:12.077Z,88.04
2022-11-29T14:36:53.908Z,88.07
2022-11-29T14:39:44.251Z,88.10
2022-11-29T14:42:25.503Z,88.37
2022-11-29T14:45:01.542Z,88.21
2022-11-29T14:47:37.119Z,87.96
2022-11-29T14:50:10.668Z,87.95
2022-11-29T14:52:51.874Z,88.07
2022-11-29T14:55:19.465Z,87.97
2022-11-29T14:57:47.073Z,88.09
2022-11-29T15:00:18.957Z,88.15
2022-11-29T15:03:21.171Z,87.96
2022-11-29T15:06:25.623Z,87.98
2022-11-29T15:09:16.426Z,88.34
2022-11-29T15:12:00.292Z,88.02
2022-11-29T15:15:19.215Z,88.05
2022-11-29T15:18:12.149Z,88.01
2022-11-29T15:20:55.082Z,87.98
2022-11-29T15:23:22.908Z,87.92
2022-11-29T15:25:54.026Z,88.07
2022-11-29T15:28:28.775Z,88.03
2022-11-29T15:31:09.355Z,88.27
2022-11-29T15:33:42.539Z,88.41
2022-11-29T15:36:21.053Z,88.16
2022-11-29T15:38:52.300Z,88.10
2022-11-29T15:41:28.677Z,88.25
2022-11-29T15:44:06.270Z,88.32
2022-11-29T15:46:35.770Z,88.27
2022-11-29T15:49:22.311Z,88.23
2022-11-29T15:51:57.222Z,88.42
2022-11-29T15:54:48.988Z,88.82
2022-11-29T15:57:28.766Z,88.77
2022-11-29T16:00:02.225Z,88.77
2022-11-29T16:02:38.158Z,88.73
2022-11-29T16:05:37.680Z,88.58
2022-11-29T16:08:18.825Z,88.57
2022-11-29T16:10:52.918Z,88.67
2022-11-29T16:13:33.318Z,88.66
2022-11-29T16:16:22.846Z,88.58
2022-11-29T16:18:51.248Z,88.75
2022-11-29T16:21:32.101Z,88.81
2022-11-29T16:24:13.750Z,88.95
2022-11-29T16:26:44.565Z,89.14
2022-11-29T16:29:33.865Z,89.21
2022-11-29T16:32:32.287Z,89.04
2022-11-29T16:35:28.453Z,89.07
2022-11-29T16:37:57.023Z,89.17
2022-11-29T16:40:28.988Z,89.10
2022-11-29T16:43:03.215Z,89.25
2022-11-29T16:45:35.400Z,89.22
2022-11-29T16:48:28.933Z,89.09
2022-11-29T16:51:25.338Z,89.15
2022-11-29T16:53:55.969Z,89.29
2022-11-29T16:56:27.872Z,89.31
2022-11-29T16:59:24.575Z,89.31
2022-11-29T17:01:49.501Z,89.27
2022-11-29T17:04:23.484Z,89.32
2022-11-29T17:06:55.849Z,89.34
2022-11-29T17:09:28.419Z,89.11
2022-11-29T17:11:59.764Z,89.01
2022-11-29T17:14:31.849Z,88.94
2022-11-29T17:17:02.659Z,89.11
2022-11-29T17:19:31.072Z,89.17
2022-11-29T17:21:59.398Z,89.18
2022-11-29T17:24:27.170Z,89.22
2022-11-29T17:26:55.094Z,89.29
2022-11-29T17:29:22.770Z,88.96
2022-11-29T17:31:50.689Z,88.60
2022-11-29T17:34:18.893Z,88.48
2022-11-29T17:36:46.819Z,88.80
2022-11-29T17:39:15.731Z,89.09
2022-11-29T17:41:43.526Z,88.99
2022-11-29T17:44:11.284Z,88.97
2022-11-29T17:46:39.024Z,88.96
2022-11-29T17:49:09.784Z,88.79
2022-11-29T17:51:55.916Z,88.72
2022-11-29T17:54:24.135Z,88.82
2022-11-29T17:56:51.919Z,88.76
2022-11-29T17:59:20.336Z,88.89
2022-11-29T18:01:48.186Z,89.04
2022-11-29T18:04:16.020Z,88.95
2022-11-29T18:06:44.052Z,88.89
2022-11-29T18:09:12.835Z,88.77
2022-11-29T18:11:49.282Z,88.76
2022-11-29T18:14:23.314Z,88.77
2022-11-29T18:16:51.663Z,88.76
2022-11-29T18:19:22.370Z,88.56
2022-11-29T18:21:51.275Z,88.51
2022-11-29T18:24:19.599Z,88.69
2022-11-29T18:26:47.678Z,88.39
2022-11-29T18:29:15.496Z,88.15
2022-11-29T18:31:45.253Z,88.42
2022-11-29T18:34:14.552Z,88.56
2022-11-29T18:36:46.287Z,88.61
2022-11-29T18:39:20.012Z,88.69
2022-11-29T18:41:50.433Z,88.72
2022-11-29T18:44:21.653Z,88.33
2022-11-29T18:46:49.673Z,88.23
2022-11-29T18:49:18.529Z,88.42
2022-11-29T18:51:48.754Z,88.64
2022-11-29T18:54:18.938Z,88.70
2022-11-29T18:56:49.983Z,88.85
2022-11-29T18:59:18.064Z,88.82
2022-11-29T19:01:47.913Z,88.90
2022-11-29T19:04:20.321Z,88.98
2022-11-29T19:06:48.666Z,88.93
2022-11-29T19:09:21.204Z,88.93
2022-11-29T19:11:49.795Z,88.92
2022-11-29T19:14:19.237Z,89.06
2022-11-29T19:16:49.240Z,88.97
2022-11-29T19:19:18.885Z,89.05
2022-11-29T19:21:47.300Z,89.01
2022-11-29T19:24:17.653Z,89.15
2022-11-29T19:26:48.093Z,88.71
2022-11-29T19:29:17.266Z,88.80
2022-11-29T19:31:45.172Z,88.93
2022-11-29T19:34:13.542Z,88.96
2022-11-29T19:36:43.103Z,88.93
2022-11-29T19:39:14.792Z,88.83
2022-11-29T19:41:46.257Z,88.80
2022-11-29T19:44:14.572Z,88.53
2022-11-29T19:46:48.354Z,88.59
2022-11-29T19:49:17.205Z,88.51
2022-11-29T19:51:44.922Z,88.40
2022-11-29T19:54:13.024Z,88.50
2022-11-29T19:56:40.819Z,88.55
2022-11-29T19:59:09.055Z,88.55
2022-11-29T20:01:41.360Z,88.76
2022-11-29T20:04:12.943Z,88.95
2022-11-29T20:06:40.975Z,89.01
2022-11-29T20:09:09.353Z,89.02
2022-11-29T20:11:37.265Z,88.94
2022-11-29T20:14:07.310Z,88.84
2022-11-29T20:16:37.831Z,88.82
2022-11-29T20:19:12.294Z,89.04
2022-11-29T20:21:45.209Z,89.07
2022-11-29T20:24:14.697Z,89.19
2022-11-29T20:26:46.983Z,88.91
2022-11-29T20:29:15.962Z,88.91
2022-11-29T20:31:50.070Z,88.98
2022-11-29T20:34:20.233Z,88.83
2022-11-29T20:37:15.977Z,88.68
2022-11-29T20:40:00.249Z,88.73
2022-11-29T20:43:03.846Z,88.87
2022-11-29T20:45:32.522Z,89.20
2022-11-29T20:48:15.276Z,89.27
2022-11-29T20:50:51.957Z,89.30
2022-11-29T20:53:42.300Z,89.30
2022-11-29T20:56:11.961Z,89.28
2022-11-29T20:58:40.009Z,89.44
2022-11-29T21:01:08.070Z,89.54
2022-11-29T21:03:36.191Z,89.70
2022-11-29T21:06:06.323Z,89.55
2022-11-29T21:08:34.230Z,89.59
2022-11-29T21:11:05.544Z,89.54
2022-11-29T21:13:34.180Z,89.49
2022-11-29T21:16:03.027Z,89.48
2022-11-29T21:18:32.234Z,89.47
2022-11-29T21:21:25.342Z,89.42
2022-11-29T21:24:46.006Z,89.53
2022-11-29T21:27:28.717Z,89.38
2022-11-29T21:29:57.018Z,89.40
2022-11-29T21:32:27.314Z,89.17
2022-11-29T21:34:55.047Z,88.99
2022-11-29T21:37:29.197Z,89.09
2022-11-29T21:39:58.396Z,88.93
2022-11-29T21:42:27.199Z,88.78
2022-11-29T21:44:54.936Z,88.70
2022-11-29T21:47:22.853Z,88.69
2022-11-29T21:49:52.582Z,88.74
2022-11-29T21:52:22.713Z,88.82
2022-11-29T21:54:50.811Z,88.94
2022-11-29T21:57:18.509Z,89.05
2022-11-29T21:59:46.224Z,89.07
2022-11-29T22:02:14.237Z,89.10
2022-11-29T22:04:42.224Z,89.22
2022-11-29T22:07:09.932Z,89.12
2022-11-29T22:09:37.585Z,88.88
2022-11-29T22:12:25.794Z,89.03
2022-11-29T22:14:53.413Z,88.87
2022-11-29T22:17:21.163Z,89.00
2022-11-29T22:19:48.849Z,89.16
2022-11-29T22:22:16.560Z,89.08
2022-11-29T22:24:44.428Z,89.00
2022-11-29T22:27:12.649Z,89.17
2022-11-29T22:29:40.294Z,89.44
2022-11-29T22:32:07.937Z,89.27
2022-11-29T22:34:35.573Z,89.18
2022-11-29T22:37:03.412Z,88.88
2022-11-29T22:39:31.172Z,88.83
2022-11-29T22:41:58.814Z,88.64
2022-11-29T22:44:26.537Z,89.01
2022-11-29T22:46:54.329Z,88.91
2022-11-29T22:49:22.096Z,88.74
2022-11-29T22:51:49.997Z,88.95
2022-11-29T22:54:17.992Z,88.98
2022-11-29T22:56:46.820Z,88.93
2022-11-29T22:59:14.677Z,88.98
2022-11-29T23:01:42.583Z,88.98
2022-11-29T23:04:12.334Z,89.02
2022-11-29T23:06:45.702Z,88.87
2022-11-29T23:09:19.721Z,88.79
2022-11-29T23:11:56.201Z,89.04
2022-11-29T23:14:24.395Z,89.19
2022-11-29T23:16:52.698Z,89.01
2022-11-29T23:19:20.958Z,89.09
2022-11-29T23:21:48.775Z,88.93
2022-11-29T23:24:16.593Z,89.06
2022-11-29T23:26:47.260Z,89.19
2022-11-29T23:29:18.704Z,89.22
2022-11-29T23:31:47.821Z,89.09
2022-11-29T23:34:15.587Z,88.98
2022-11-29T23:36:48.272Z,89.14
2022-11-29T23:39:19.034Z,89.16
2022-11-29T23:41:46.707Z,89.03
2022-11-29T23:44:14.433Z,88.88
2022-11-29T23:46:42.134Z,88.89
2022-11-29T23:49:09.795Z,89.02
2022-11-29T23:51:37.471Z,89.13
2022-11-29T23:54:05.339Z,89.11
2022-11-29T23:56:35.327Z,89.01
2022-11-29T23:59:03.536Z,89.16
